Terminal Aerodrome Forecast
Issued by NWS

Home | Current Version | Previous Version | Text Only | Print | Product List | Glossary On
Versions: 1 2 3 4 5 6 7 8 9 10 11 12 13 14 15 16 17 18 19 20 21
730
FTUS43 KDLH 220817 AAA
TAFHIB
TAF AMD
KHIB 220817Z 2208/2306 00000KT P6SM BKN100
     FM221100 00000KT 3/4SM BR VCSH BKN015
     FM221500 00000KT 2SM BR VCSH BKN010
     FM222000 33005KT 1 1/2SM -RA OVC008
     FM230100 35011KT P6SM OVC008=

USA.gov is the U.S. government's official web portal to all federal, state and local government web resources and services.